createdAt,value
2018-03-22T00:01:12.713Z,90.59
2018-03-22T00:03:41.542Z,90.62
2018-03-22T00:06:16.907Z,90.71
2018-03-22T00:08:50.564Z,90.55
2018-03-22T00:11:18.718Z,90.45
2018-03-22T00:13:47.120Z,90.62
2018-03-22T00:16:16.069Z,90.72
2018-03-22T00:18:44.213Z,90.91
2018-03-22T00:21:13.157Z,91.01
2018-03-22T00:23:41.293Z,91.04
2018-03-22T00:26:09.436Z,91.07
2018-03-22T00:28:38.066Z,91.09
2018-03-22T00:31:06.673Z,90.69
2018-03-22T00:33:34.809Z,90.77
2018-03-22T00:36:02.998Z,90.69
2018-03-22T00:38:31.663Z,90.65
2018-03-22T00:41:01.916Z,90.44
2018-03-22T00:43:30.039Z,90.75
2018-03-22T00:45:59.371Z,90.82
2018-03-22T00:48:28.944Z,90.99
2018-03-22T00:50:57.152Z,91.15
2018-03-22T00:53:26.029Z,91.11
2018-03-22T00:55:54.164Z,90.96
2018-03-22T00:58:22.293Z,91.19
2018-03-22T01:00:50.475Z,91.32
2018-03-22T01:03:18.641Z,91.45
2018-03-22T01:05:46.819Z,91.63
2018-03-22T01:08:14.962Z,91.82
2018-03-22T01:10:43.554Z,91.86
2018-03-22T01:13:11.773Z,91.97
2018-03-22T01:15:39.916Z,91.98
2018-03-22T01:18:08.059Z,91.97
2018-03-22T01:20:36.204Z,91.86
2018-03-22T01:23:04.387Z,92.11
2018-03-22T01:25:32.616Z,92.18
2018-03-22T01:28:00.805Z,92.20
2018-03-22T01:30:36.828Z,92.30
2018-03-22T01:33:04.970Z,92.26
2018-03-22T01:35:33.105Z,92.31
2018-03-22T01:38:01.232Z,92.38
2018-03-22T01:40:29.379Z,92.56
2018-03-22T01:42:57.531Z,92.68
2018-03-22T01:45:25.664Z,92.60
2018-03-22T01:47:53.834Z,92.58
2018-03-22T01:50:21.959Z,92.76
2018-03-22T01:53:02.005Z,93.04
2018-03-22T01:55:30.142Z,93.11
2018-03-22T01:57:58.303Z,93.22
2018-03-22T02:00:26.540Z,93.17
2018-03-22T02:02:54.666Z,93.29
2018-03-22T02:05:22.824Z,93.37
2018-03-22T02:07:50.952Z,93.52
2018-03-22T02:10:19.108Z,93.58
2018-03-22T02:12:47.249Z,93.64
2018-03-22T02:15:15.422Z,93.74
2018-03-22T02:17:43.544Z,93.76
2018-03-22T02:20:11.697Z,93.76
2018-03-22T02:22:39.875Z,93.83
2018-03-22T02:25:08.095Z,93.87
2018-03-22T02:27:36.334Z,93.71
2018-03-22T02:30:04.512Z,93.68
2018-03-22T02:32:32.673Z,93.68
2018-03-22T02:35:00.797Z,93.68
2018-03-22T02:37:28.921Z,93.65
2018-03-22T02:39:57.113Z,93.79
2018-03-22T02:42:25.333Z,93.97
2018-03-22T02:44:53.488Z,94.05
2018-03-22T02:47:21.663Z,94.01
2018-03-22T02:49:49.837Z,94.15
2018-03-22T02:52:18.078Z,94.15
2018-03-22T02:54:46.217Z,94.04
2018-03-22T02:57:14.357Z,94.07
2018-03-22T02:59:42.555Z,94.10
2018-03-22T03:02:10.735Z,94.10
2018-03-22T03:04:38.920Z,94.00
2018-03-22T03:07:07.113Z,94.05
2018-03-22T03:09:35.273Z,94.01
2018-03-22T03:12:03.456Z,93.94
2018-03-22T03:14:31.619Z,93.87
2018-03-22T03:16:59.753Z,93.68
2018-03-22T03:19:27.947Z,93.65
2018-03-22T03:21:56.076Z,93.53
2018-03-22T03:24:24.235Z,93.47
2018-03-22T03:26:52.447Z,93.57
2018-03-22T03:29:20.675Z,93.55
2018-03-22T03:31:48.833Z,93.42
2018-03-22T03:34:16.988Z,93.42
2018-03-22T03:36:45.144Z,93.37
2018-03-22T03:39:13.354Z,93.22
2018-03-22T03:41:41.512Z,93.15
2018-03-22T03:44:09.652Z,93.30
2018-03-22T03:46:37.804Z,93.36
2018-03-22T03:49:05.982Z,93.38
2018-03-22T03:51:34.183Z,93.35
2018-03-22T03:54:02.303Z,93.40
2018-03-22T03:56:30.484Z,93.50
2018-03-22T03:58:58.667Z,93.60
2018-03-22T04:01:26.798Z,93.75
2018-03-22T04:03:54.990Z,93.93
2018-03-22T04:06:23.147Z,94.05
2018-03-22T04:08:51.264Z,94.15
2018-03-22T04:11:19.445Z,94.21
2018-03-22T04:13:47.743Z,94.24
2018-03-22T04:16:15.909Z,94.22
2018-03-22T04:18:44.081Z,94.26
2018-03-22T04:21:12.205Z,94.24
2018-03-22T04:23:40.339Z,94.16
2018-03-22T04:26:08.508Z,94.09
2018-03-22T04:28:36.704Z,94.03
2018-03-22T04:31:04.826Z,93.97
2018-03-22T04:33:32.984Z,93.89
2018-03-22T04:36:01.216Z,93.81
2018-03-22T04:38:29.348Z,93.73
2018-03-22T04:40:57.515Z,93.74
2018-03-22T04:43:25.646Z,93.69
2018-03-22T04:45:53.797Z,93.49
2018-03-22T04:48:21.943Z,93.46
2018-03-22T04:50:50.128Z,93.45
2018-03-22T04:53:18.264Z,93.45
2018-03-22T04:55:46.396Z,93.44
2018-03-22T04:58:14.544Z,93.04
2018-03-22T05:00:42.746Z,92.91
2018-03-22T05:03:10.859Z,92.94
2018-03-22T05:05:38.986Z,93.09
2018-03-22T05:08:07.169Z,93.09
2018-03-22T05:10:35.295Z,92.81
2018-03-22T05:13:03.453Z,92.66
2018-03-22T05:15:31.599Z,92.44
2018-03-22T05:17:59.755Z,92.20
2018-03-22T05:20:27.920Z,92.20
2018-03-22T05:22:56.068Z,92.05
2018-03-22T05:25:24.226Z,91.93
2018-03-22T05:27:52.400Z,91.78
2018-03-22T05:30:20.558Z,91.91
2018-03-22T05:32:48.724Z,91.74
2018-03-22T05:35:16.881Z,91.86
2018-03-22T05:37:45.027Z,92.06
2018-03-22T05:40:13.193Z,92.04
2018-03-22T05:42:41.471Z,91.99
2018-03-22T05:45:09.988Z,91.77
2018-03-22T05:47:38.143Z,91.63
2018-03-22T05:50:06.316Z,91.53
2018-03-22T05:52:34.464Z,91.16
2018-03-22T05:55:03.518Z,90.65
2018-03-22T05:57:31.656Z,90.55
2018-03-22T05:59:59.853Z,90.59
2018-03-22T06:02:27.983Z,90.17
2018-03-22T06:04:56.132Z,90.29
2018-03-22T06:07:24.258Z,90.07
2018-03-22T06:09:52.386Z,90.21
2018-03-22T06:12:20.552Z,90.06
2018-03-22T06:14:48.712Z,89.63
2018-03-22T06:17:16.886Z,89.42
2018-03-22T06:19:45.027Z,88.91
2018-03-22T06:22:13.182Z,88.35
2018-03-22T06:24:41.303Z,87.96
2018-03-22T06:27:09.474Z,87.43
2018-03-22T06:29:37.601Z,87.14
2018-03-22T06:32:05.763Z,86.80
2018-03-22T06:34:33.907Z,86.75
2018-03-22T06:37:02.036Z,86.51
2018-03-22T06:39:30.166Z,86.27
2018-03-22T06:41:58.424Z,86.22
2018-03-22T06:44:26.615Z,86.13
2018-03-22T06:46:54.744Z,85.93
2018-03-22T06:49:22.927Z,85.46
2018-03-22T06:51:51.133Z,85.26
2018-03-22T06:54:20.091Z,85.43
2018-03-22T06:56:48.231Z,84.87
2018-03-22T06:59:16.357Z,84.85
2018-03-22T07:01:44.492Z,84.19
2018-03-22T07:04:12.632Z,83.65
2018-03-22T07:06:40.752Z,83.48
2018-03-22T07:09:08.976Z,82.92
2018-03-22T07:11:37.102Z,82.95
2018-03-22T07:14:05.236Z,82.83
2018-03-22T07:16:33.655Z,82.80
2018-03-22T07:19:01.799Z,83.13
2018-03-22T07:21:29.937Z,82.29
2018-03-22T07:23:58.045Z,79.83
2018-03-22T07:26:26.165Z,80.26
2018-03-22T07:28:54.285Z,81.00
2018-03-22T07:31:22.404Z,78.24
2018-03-22T07:33:50.779Z,79.64
2018-03-22T07:36:18.912Z,78.87
2018-03-22T07:38:47.032Z,80.27
2018-03-22T07:41:15.161Z,79.45
2018-03-22T07:43:43.289Z,78.67
2018-03-22T07:46:11.407Z,78.81
2018-03-22T07:48:39.535Z,78.34
2018-03-22T07:51:07.651Z,78.33
2018-03-22T07:53:35.781Z,78.29
2018-03-22T07:56:03.899Z,78.84
2018-03-22T07:58:32.046Z,78.11
2018-03-22T08:01:00.167Z,78.08
2018-03-22T08:03:28.295Z,78.14
2018-03-22T08:05:56.482Z,78.47
2018-03-22T08:08:24.551Z,78.60
2018-03-22T08:10:52.702Z,77.67
2018-03-22T08:13:21.264Z,77.71
2018-03-22T08:15:49.409Z,77.13
2018-03-22T08:18:17.525Z,76.36
2018-03-22T08:20:45.656Z,76.54
2018-03-22T08:23:13.846Z,75.65
2018-03-22T08:25:41.973Z,76.07
2018-03-22T08:28:10.100Z,74.56
2018-03-22T08:30:38.224Z,73.70
2018-03-22T08:33:06.502Z,73.76
2018-03-22T08:35:34.648Z,72.99
2018-03-22T08:38:02.768Z,70.14
2018-03-22T08:40:30.919Z,70.53
2018-03-22T08:42:59.045Z,70.47
2018-03-22T08:45:27.163Z,69.06
2018-03-22T08:47:55.291Z,70.24
2018-03-22T08:50:23.435Z,68.64
2018-03-22T08:52:51.552Z,69.75
2018-03-22T08:55:19.698Z,71.04
2018-03-22T08:57:47.827Z,66.74
2018-03-22T09:00:15.929Z,68.80
2018-03-22T09:02:44.101Z,67.26
2018-03-22T09:05:12.261Z,66.57
2018-03-22T09:08:10.834Z,67.00
2018-03-22T09:11:16.768Z,65.28
2018-03-22T09:14:22.833Z,64.10
2018-03-22T09:17:28.905Z,63.83
2018-03-22T09:20:34.983Z,58.47
2018-03-22T09:23:41.023Z,60.01
2018-03-22T09:26:53.444Z,62.34
2018-03-22T09:29:59.560Z,59.73
2018-03-22T09:32:57.985Z,58.87
2018-03-22T09:35:27.827Z,60.00
2018-03-22T09:37:56.011Z,59.41
2018-03-22T09:40:24.143Z,57.33
2018-03-22T09:42:52.273Z,58.64
2018-03-22T09:45:20.394Z,60.17
2018-03-22T09:47:48.546Z,58.51
2018-03-22T09:50:16.724Z,58.33
2018-03-22T09:52:44.848Z,56.73
2018-03-22T09:55:13.000Z,56.85
2018-03-22T09:57:41.232Z,57.93
2018-03-22T10:00:09.347Z,60.90
2018-03-22T10:02:37.465Z,57.25
2018-03-22T10:05:05.629Z,54.56
2018-03-22T10:07:33.746Z,53.26
2018-03-22T10:10:01.880Z,54.13
2018-03-22T10:12:30.016Z,55.09
2018-03-22T10:14:58.164Z,58.48
2018-03-22T10:17:26.312Z,57.29
2018-03-22T10:19:54.419Z,54.19
2018-03-22T10:22:22.550Z,53.41
2018-03-22T10:24:50.667Z,54.21
2018-03-22T10:27:18.803Z,54.46
2018-03-22T10:29:46.953Z,54.11
2018-03-22T10:32:15.064Z,52.19
2018-03-22T10:34:43.191Z,56.45
2018-03-22T10:37:11.324Z,51.98
2018-03-22T10:39:39.463Z,53.11
2018-03-22T10:42:07.601Z,51.32
2018-03-22T10:44:35.736Z,52.30
2018-03-22T10:47:03.872Z,54.59
2018-03-22T10:49:31.997Z,55.18
2018-03-22T10:52:00.151Z,49.93
2018-03-22T10:54:28.321Z,49.75
2018-03-22T10:56:56.505Z,52.98
2018-03-22T10:59:24.771Z,53.74
2018-03-22T11:01:58.626Z,50.04
2018-03-22T11:04:26.764Z,52.97
2018-03-22T11:06:54.910Z,50.68
2018-03-22T11:09:23.029Z,49.42
2018-03-22T11:11:51.195Z,47.87
2018-03-22T11:14:19.313Z,47.30
2018-03-22T11:16:47.445Z,48.38
2018-03-22T11:19:15.592Z,49.15
2018-03-22T11:21:43.742Z,51.59
2018-03-22T11:24:11.880Z,51.51
2018-03-22T11:26:40.033Z,48.25
2018-03-22T11:29:08.208Z,49.58
2018-03-22T11:31:36.346Z,47.58
2018-03-22T11:34:04.479Z,49.24
2018-03-22T11:36:32.607Z,50.61
2018-03-22T11:39:00.804Z,49.60
2018-03-22T11:41:28.968Z,48.67
2018-03-22T11:43:57.079Z,46.24
2018-03-22T11:46:25.228Z,45.93
2018-03-22T11:48:53.376Z,48.20
2018-03-22T11:51:21.527Z,47.53
2018-03-22T11:53:49.708Z,48.07
2018-03-22T11:56:17.817Z,46.80
2018-03-22T11:58:45.958Z,48.15
2018-03-22T12:01:14.109Z,47.59
2018-03-22T12:03:42.238Z,45.60
2018-03-22T12:06:10.367Z,46.78
2018-03-22T12:08:38.495Z,48.67
2018-03-22T12:11:06.788Z,46.40
2018-03-22T12:13:34.880Z,46.24
2018-03-22T12:16:03.022Z,45.39
2018-03-22T12:18:31.180Z,45.26
2018-03-22T12:20:59.324Z,44.56
2018-03-22T12:23:27.469Z,48.39
2018-03-22T12:25:55.581Z,50.23
2018-03-22T12:28:23.711Z,49.63
2018-03-22T12:30:51.846Z,47.64
2018-03-22T12:33:20.002Z,45.46
2018-03-22T12:35:48.202Z,47.92
2018-03-22T12:38:16.342Z,47.49
2018-03-22T12:40:44.464Z,43.67
2018-03-22T12:43:12.651Z,46.60
2018-03-22T12:45:40.740Z,47.10
2018-03-22T12:48:08.885Z,46.67
2018-03-22T12:50:37.018Z,45.29
2018-03-22T12:53:05.191Z,45.48
2018-03-22T12:55:33.379Z,47.50
2018-03-22T12:58:01.535Z,45.38
2018-03-22T13:00:29.659Z,47.05
2018-03-22T13:02:59.315Z,45.35
2018-03-22T13:05:27.448Z,47.80
2018-03-22T13:07:55.590Z,44.85
2018-03-22T13:10:23.734Z,44.56
2018-03-22T13:12:51.858Z,45.60
2018-03-22T13:15:19.985Z,44.41
2018-03-22T13:17:48.113Z,41.67
2018-03-22T13:20:16.325Z,42.96
2018-03-22T13:22:44.394Z,43.88
2018-03-22T13:25:12.526Z,43.44
2018-03-22T13:27:40.684Z,45.57
2018-03-22T13:30:08.826Z,42.78
2018-03-22T13:32:37.008Z,43.24
2018-03-22T13:35:05.180Z,43.42
2018-03-22T13:37:33.444Z,43.69
2018-03-22T13:40:01.593Z,42.83
2018-03-22T13:42:29.747Z,43.51
2018-03-22T13:44:57.899Z,42.78
2018-03-22T13:47:26.079Z,43.71
2018-03-22T13:49:54.213Z,43.84
2018-03-22T13:52:22.645Z,43.84
2018-03-22T13:54:50.765Z,41.70
2018-03-22T13:57:18.885Z,41.61
2018-03-22T13:59:47.020Z,43.12
2018-03-22T14:02:15.133Z,43.43
2018-03-22T14:04:43.242Z,42.58
2018-03-22T14:07:11.399Z,44.44
2018-03-22T14:09:39.532Z,45.14
2018-03-22T14:12:07.658Z,45.00
2018-03-22T14:14:35.803Z,44.32
2018-03-22T14:17:03.947Z,44.07
2018-03-22T14:19:32.069Z,43.93
2018-03-22T14:22:00.230Z,45.04
2018-03-22T14:24:28.360Z,44.28
2018-03-22T14:26:56.485Z,44.60
2018-03-22T14:29:24.670Z,46.51
2018-03-22T14:31:52.792Z,46.54
2018-03-22T14:34:20.921Z,45.44
2018-03-22T14:36:49.121Z,47.47
2018-03-22T14:39:17.247Z,46.38
2018-03-22T14:41:45.391Z,46.57
2018-03-22T14:44:13.551Z,46.02
2018-03-22T14:46:41.660Z,43.60
2018-03-22T14:49:10.671Z,43.40
2018-03-22T14:51:38.984Z,44.72
2018-03-22T14:54:07.088Z,43.75
2018-03-22T14:56:37.659Z,44.11
2018-03-22T14:59:05.817Z,43.83
2018-03-22T15:01:33.982Z,44.48
2018-03-22T15:04:02.146Z,45.26
2018-03-22T15:06:30.337Z,43.98
2018-03-22T15:08:58.483Z,45.72
2018-03-22T15:11:26.634Z,45.28
2018-03-22T15:13:54.796Z,46.02
2018-03-22T15:16:22.930Z,47.10
2018-03-22T15:18:51.076Z,46.40
2018-03-22T15:21:19.382Z,48.58
2018-03-22T15:23:47.509Z,48.22
2018-03-22T15:26:15.671Z,48.87
2018-03-22T15:28:43.833Z,49.10
2018-03-22T15:31:11.986Z,48.33
2018-03-22T15:33:40.113Z,49.53
2018-03-22T15:36:08.267Z,49.67
2018-03-22T15:38:36.404Z,50.20
2018-03-22T15:41:04.571Z,50.32
2018-03-22T15:43:34.124Z,50.20
2018-03-22T15:46:02.280Z,51.09
2018-03-22T15:48:30.429Z,51.22
2018-03-22T15:50:58.965Z,51.67
2018-03-22T15:53:27.095Z,51.87
2018-03-22T15:55:55.229Z,52.55
2018-03-22T15:58:23.352Z,49.28
2018-03-22T16:00:51.484Z,49.72
2018-03-22T16:03:19.640Z,48.71
2018-03-22T16:05:47.791Z,48.35
2018-03-22T16:08:15.921Z,49.25
2018-03-22T16:10:44.044Z,50.40
2018-03-22T16:13:12.171Z,49.94
2018-03-22T16:15:40.323Z,51.04
2018-03-22T16:18:08.470Z,50.81
2018-03-22T16:20:36.619Z,51.31
2018-03-22T16:23:04.747Z,51.03
2018-03-22T16:25:32.870Z,52.28
2018-03-22T16:28:01.000Z,53.32
2018-03-22T16:30:29.224Z,53.47
2018-03-22T16:32:57.358Z,53.08
2018-03-22T16:35:25.519Z,53.88
2018-03-22T16:37:53.729Z,53.80
2018-03-22T16:40:21.867Z,54.08
2018-03-22T16:42:49.991Z,54.01
2018-03-22T16:45:18.141Z,54.38
2018-03-22T16:47:46.812Z,55.23
2018-03-22T16:50:14.950Z,55.73
2018-03-22T16:52:43.084Z,56.02
2018-03-22T16:55:11.213Z,57.05
2018-03-22T16:57:39.379Z,58.20
2018-03-22T17:00:07.526Z,59.60
2018-03-22T17:02:35.655Z,60.13
2018-03-22T17:05:03.846Z,60.18
2018-03-22T17:07:32.005Z,60.66
2018-03-22T17:10:00.203Z,61.37
2018-03-22T17:12:28.358Z,62.06
2018-03-22T17:14:56.480Z,62.13
2018-03-22T17:17:24.604Z,62.08
2018-03-22T17:19:52.753Z,62.23
2018-03-22T17:22:20.933Z,62.39
2018-03-22T17:24:49.005Z,62.31
2018-03-22T17:27:17.138Z,62.58
2018-03-22T17:29:45.270Z,62.85
2018-03-22T17:32:13.447Z,63.97
2018-03-22T17:34:41.583Z,64.53
2018-03-22T17:37:10.673Z,64.47
2018-03-22T17:39:38.804Z,64.54
2018-03-22T17:42:06.945Z,64.32
2018-03-22T17:44:35.095Z,64.24
2018-03-22T17:47:03.189Z,63.93
2018-03-22T17:49:31.315Z,63.56
2018-03-22T17:51:59.463Z,63.23
2018-03-22T17:54:27.567Z,62.83
2018-03-22T17:56:55.735Z,62.83
2018-03-22T17:59:23.879Z,62.86
2018-03-22T18:01:52.029Z,62.82
2018-03-22T18:04:20.186Z,62.48
2018-03-22T18:06:48.324Z,62.48
2018-03-22T18:09:16.464Z,62.55
2018-03-22T18:11:44.618Z,62.69
2018-03-22T18:14:12.743Z,63.16
2018-03-22T18:16:40.899Z,63.49
2018-03-22T18:19:09.046Z,63.91
2018-03-22T18:21:37.192Z,64.21
2018-03-22T18:24:05.297Z,64.67
2018-03-22T18:26:33.459Z,64.60
2018-03-22T18:29:01.605Z,64.38
2018-03-22T18:31:29.746Z,64.40
2018-03-22T18:33:57.914Z,64.05
2018-03-22T18:36:26.044Z,63.93
2018-03-22T18:38:54.202Z,64.54
2018-03-22T18:41:22.328Z,64.62
2018-03-22T18:43:50.483Z,64.62
2018-03-22T18:46:18.632Z,64.61
2018-03-22T18:48:46.773Z,63.72
2018-03-22T18:51:14.883Z,63.19
2018-03-22T18:53:43.020Z,62.56
2018-03-22T18:56:11.182Z,62.14
2018-03-22T18:58:39.327Z,61.30
2018-03-22T19:01:07.494Z,61.51
2018-03-22T19:03:35.600Z,59.27
2018-03-22T19:06:03.726Z,59.11
2018-03-22T19:08:31.867Z,58.97
2018-03-22T19:11:00.005Z,59.09
2018-03-22T19:13:28.151Z,58.71
2018-03-22T19:15:56.290Z,58.77
2018-03-22T19:18:24.421Z,57.42
2018-03-22T19:20:52.571Z,57.57
2018-03-22T19:23:20.724Z,56.59
2018-03-22T19:25:48.872Z,53.60
2018-03-22T19:28:17.008Z,52.20
2018-03-22T19:30:45.152Z,51.14
2018-03-22T19:33:13.350Z,51.21
2018-03-22T19:35:41.449Z,51.00
2018-03-22T19:38:09.585Z,54.84
2018-03-22T19:40:37.743Z,57.57
2018-03-22T19:43:05.991Z,58.96
2018-03-22T19:45:34.139Z,59.22
2018-03-22T19:48:02.256Z,60.57
2018-03-22T19:50:30.382Z,62.22
2018-03-22T19:52:58.549Z,63.60
2018-03-22T19:55:26.699Z,64.59
2018-03-22T19:57:54.912Z,65.55
2018-03-22T20:00:23.040Z,66.23
2018-03-22T20:02:51.185Z,66.63
2018-03-22T20:05:19.331Z,66.00
2018-03-22T20:07:47.487Z,65.83
2018-03-22T20:10:15.641Z,66.08
2018-03-22T20:12:44.321Z,65.99
2018-03-22T20:15:12.507Z,65.82
2018-03-22T20:17:40.653Z,65.85
2018-03-22T20:20:08.800Z,65.95
2018-03-22T20:22:36.926Z,66.13
2018-03-22T20:25:05.066Z,66.64
2018-03-22T20:27:33.208Z,66.93
2018-03-22T20:30:01.328Z,66.73
2018-03-22T20:32:29.481Z,66.93
2018-03-22T20:34:57.639Z,66.91
2018-03-22T20:37:25.796Z,66.60
2018-03-22T20:39:53.922Z,66.93
2018-03-22T20:42:22.051Z,66.82
2018-03-22T20:44:50.181Z,66.81
2018-03-22T20:47:18.395Z,66.13
2018-03-22T20:49:46.523Z,64.37
2018-03-22T20:52:14.660Z,62.87
2018-03-22T20:54:42.928Z,62.58
2018-03-22T20:57:11.033Z,62.01
2018-03-22T20:59:39.147Z,61.33
2018-03-22T21:02:07.307Z,60.77
2018-03-22T21:04:35.430Z,60.45
2018-03-22T21:07:03.577Z,59.39
2018-03-22T21:09:31.682Z,59.64
2018-03-22T21:11:59.844Z,59.56
2018-03-22T21:14:27.978Z,59.78
2018-03-22T21:16:56.539Z,59.23
2018-03-22T21:19:24.699Z,58.96
2018-03-22T21:21:52.815Z,59.13
2018-03-22T21:24:20.955Z,59.10
2018-03-22T21:26:49.095Z,58.62
2018-03-22T21:29:17.208Z,58.05
2018-03-22T21:31:45.355Z,58.76
2018-03-22T21:34:13.536Z,58.47
2018-03-22T21:36:41.686Z,59.61
2018-03-22T21:39:10.060Z,59.64
2018-03-22T21:44:40.463Z,60.14
2018-03-22T21:47:20.316Z,60.49
2018-03-22T21:49:48.495Z,60.42
2018-03-22T21:52:28.789Z,60.96
2018-03-22T21:54:56.940Z,61.41
2018-03-22T21:57:25.077Z,61.68
2018-03-22T21:59:53.256Z,62.47
2018-03-22T22:02:21.451Z,62.53
2018-03-22T22:04:49.578Z,62.78
2018-03-22T22:07:17.707Z,63.18
2018-03-22T22:09:45.859Z,64.03
2018-03-22T22:12:13.986Z,64.32
2018-03-22T22:14:42.139Z,64.50
2018-03-22T22:17:10.289Z,64.53
2018-03-22T22:19:38.415Z,64.60
2018-03-22T22:22:06.550Z,64.34
2018-03-22T22:24:34.830Z,64.67
2018-03-22T22:27:02.938Z,65.29
2018-03-22T22:29:31.065Z,65.22
2018-03-22T22:31:59.187Z,66.30
2018-03-22T22:34:27.331Z,66.13
2018-03-22T22:36:55.447Z,65.56
2018-03-22T22:39:23.614Z,66.14
2018-03-22T22:41:51.773Z,67.05
2018-03-22T22:44:19.947Z,66.98
2018-03-22T22:46:48.202Z,67.61
2018-03-22T22:49:16.346Z,68.43
2018-03-22T22:51:44.516Z,68.58
2018-03-22T22:54:12.640Z,69.19
2018-03-22T22:56:40.814Z,69.56
2018-03-22T22:59:08.887Z,69.90
2018-03-22T23:01:37.006Z,70.59
2018-03-22T23:04:05.159Z,70.89
2018-03-22T23:06:33.288Z,71.60
2018-03-22T23:09:01.466Z,71.90
2018-03-22T23:11:29.704Z,72.77
2018-03-22T23:13:57.820Z,73.11
2018-03-22T23:16:25.946Z,73.95
2018-03-22T23:18:54.084Z,74.22
2018-03-22T23:21:22.205Z,75.33
2018-03-22T23:23:50.331Z,75.98
2018-03-22T23:26:18.463Z,76.19
2018-03-22T23:28:46.617Z,76.50
2018-03-22T23:31:14.738Z,76.55
2018-03-22T23:33:43.335Z,77.29
2018-03-22T23:36:11.523Z,77.91
2018-03-22T23:38:40.642Z,77.86
2018-03-22T23:41:12.656Z,78.38
2018-03-22T23:43:40.783Z,78.75
2018-03-22T23:46:08.941Z,79.23
2018-03-22T23:48:37.974Z,79.54
2018-03-22T23:51:06.160Z,79.45
2018-03-22T23:53:34.302Z,80.48
2018-03-22T23:56:02.416Z,81.11
2018-03-22T23:58:30.556Z,81.26
